createdAt,value
2018-04-02T00:00:47.270Z,94.97
2018-04-02T00:03:19.816Z,92.87
2018-04-02T00:05:52.407Z,85.37
2018-04-02T00:08:24.996Z,87.37
2018-04-02T00:10:58.388Z,95.10
2018-04-02T00:13:31.046Z,106.40
2018-04-02T00:16:03.528Z,88.07
2018-04-02T00:18:36.041Z,88.23
2018-04-02T00:21:08.579Z,96.70
2018-04-02T00:23:41.109Z,95.20
2018-04-02T00:26:15.170Z,80.70
2018-04-02T00:28:47.566Z,75.23
2018-04-02T00:31:20.429Z,91.53
2018-04-02T00:33:52.904Z,88.13
2018-04-02T00:36:25.609Z,94.00
2018-04-02T00:38:58.488Z,82.30
2018-04-02T00:41:38.759Z,92.53
2018-04-02T00:44:11.097Z,85.03
2018-04-02T00:46:43.501Z,85.73
2018-04-02T00:49:16.030Z,80.53
2018-04-02T00:51:48.630Z,93.77
2018-04-02T00:54:21.479Z,79.70
2018-04-02T00:56:54.005Z,85.97
2018-04-02T00:59:27.109Z,81.67
2018-04-02T01:01:59.928Z,94.87
2018-04-02T01:04:33.174Z,79.87
2018-04-02T01:07:06.334Z,77.43
2018-04-02T01:09:38.975Z,74.07
2018-04-02T01:12:11.520Z,69.80
2018-04-02T01:14:44.176Z,80.37
2018-04-02T01:17:17.567Z,75.33
2018-04-02T01:19:50.116Z,70.60
2018-04-02T01:22:22.532Z,88.40
2018-04-02T01:24:55.691Z,71.80
2018-04-02T01:27:29.034Z,74.57
2018-04-02T01:30:02.346Z,72.97
2018-04-02T01:32:34.846Z,84.10
2018-04-02T01:35:07.420Z,73.63
2018-04-02T01:37:40.339Z,68.23
2018-04-02T01:40:12.847Z,84.83
2018-04-02T01:42:45.672Z,74.50
2018-04-02T01:45:18.481Z,74.47
2018-04-02T01:47:51.111Z,76.03
2018-04-02T01:50:23.746Z,73.07
2018-04-02T01:52:56.315Z,74.97
2018-04-02T01:55:29.110Z,79.10
2018-04-02T01:58:01.783Z,72.07
2018-04-02T02:00:34.192Z,76.67
2018-04-02T02:03:07.470Z,69.60
2018-04-02T02:05:39.942Z,75.83
2018-04-02T02:08:13.041Z,63.67
2018-04-02T02:10:45.600Z,74.53
2018-04-02T02:13:17.956Z,70.03
2018-04-02T02:15:51.070Z,75.20
2018-04-02T02:18:24.309Z,74.63
2018-04-02T02:20:56.896Z,73.00
2018-04-02T02:23:29.559Z,74.30
2018-04-02T02:26:02.213Z,75.33
2018-04-02T02:28:34.793Z,76.47
2018-04-02T02:31:07.216Z,69.97
2018-04-02T02:33:39.804Z,84.83
2018-04-02T02:36:12.456Z,80.30
2018-04-02T02:38:45.120Z,84.37
2018-04-02T02:41:17.534Z,74.23
2018-04-02T02:43:50.934Z,76.00
2018-04-02T02:46:24.324Z,73.70
2018-04-02T02:48:56.766Z,72.67
2018-04-02T02:51:29.239Z,74.87
2018-04-02T02:54:01.724Z,89.67
2018-04-02T02:56:34.239Z,72.87
2018-04-02T02:59:06.841Z,83.00
2018-04-02T03:01:39.442Z,71.63
2018-04-02T03:04:12.404Z,70.37
2018-04-02T03:06:44.810Z,83.73
2018-04-02T03:09:17.321Z,69.60
2018-04-02T03:11:49.800Z,76.60
2018-04-02T03:14:22.240Z,83.40
2018-04-02T03:16:54.734Z,94.37
2018-04-02T03:19:27.328Z,86.97
2018-04-02T03:21:59.931Z,89.20
2018-04-02T03:24:33.173Z,87.03
2018-04-02T03:27:05.614Z,102.40
2018-04-02T03:29:38.034Z,80.30
2018-04-02T03:32:10.453Z,85.50
2018-04-02T03:34:43.868Z,82.40
2018-04-02T03:37:16.272Z,82.27
2018-04-02T03:39:48.980Z,77.27
2018-04-02T03:42:22.251Z,84.03
2018-04-02T03:44:54.795Z,83.17
2018-04-02T03:47:27.894Z,77.27
2018-04-02T03:50:00.632Z,81.70
2018-04-02T03:52:33.191Z,78.53
2018-04-02T03:55:06.401Z,86.10
2018-04-02T03:57:38.895Z,71.27
2018-04-02T04:00:11.526Z,79.87
2018-04-02T04:02:44.044Z,79.43
2018-04-02T04:05:16.526Z,82.80
2018-04-02T04:07:49.011Z,81.53
2018-04-02T04:10:21.506Z,82.63
2018-04-02T04:12:54.664Z,85.13
2018-04-02T04:15:27.176Z,74.97
2018-04-02T04:18:01.044Z,83.43
2018-04-02T04:20:33.489Z,84.23
2018-04-02T04:23:06.085Z,73.17
2018-04-02T04:25:39.325Z,82.73
2018-04-02T04:28:12.717Z,80.83
2018-04-02T04:30:46.436Z,75.63
2018-04-02T04:33:18.956Z,99.17
2018-04-02T04:35:52.123Z,83.10
2018-04-02T04:38:24.549Z,95.87
2018-04-02T04:40:57.130Z,76.13
2018-04-02T04:43:29.830Z,81.87
2018-04-02T04:46:02.535Z,98.67
2018-04-02T04:48:35.800Z,79.40
2018-04-02T04:51:08.283Z,87.33
2018-04-02T04:53:41.061Z,83.50
2018-04-02T04:56:13.827Z,110.47
2018-04-02T04:58:46.434Z,91.37
2018-04-02T05:01:18.799Z,84.37
2018-04-02T05:03:51.360Z,89.77
2018-04-02T05:06:23.729Z,85.73
2018-04-02T05:08:56.089Z,98.77
2018-04-02T05:11:28.604Z,87.77
2018-04-02T05:14:01.206Z,94.83
2018-04-02T05:16:33.628Z,86.80
2018-04-02T05:19:06.822Z,83.97
2018-04-02T05:21:39.513Z,92.13
2018-04-02T05:24:12.424Z,89.97
2018-04-02T05:26:44.876Z,98.57
2018-04-02T05:29:17.630Z,113.23
2018-04-02T05:31:50.060Z,90.60
2018-04-02T05:34:23.409Z,117.93
2018-04-02T05:36:55.972Z,99.33
2018-04-02T05:39:28.410Z,112.03
2018-04-02T05:42:00.855Z,99.20
2018-04-02T05:44:33.395Z,107.63
2018-04-02T05:47:06.194Z,109.73
2018-04-02T05:49:38.969Z,89.60
2018-04-02T05:52:11.384Z,106.47
2018-04-02T05:54:44.006Z,116.57
2018-04-02T05:57:16.564Z,117.27
2018-04-02T05:59:49.125Z,97.20
2018-04-02T06:02:21.778Z,110.13
2018-04-02T06:04:54.121Z,109.63
2018-04-02T06:07:27.224Z,114.97
2018-04-02T06:09:59.704Z,115.90
2018-04-02T06:12:32.904Z,105.13
2018-04-02T06:15:05.409Z,110.20
2018-04-02T06:17:37.916Z,111.10
2018-04-02T06:20:10.529Z,122.73
2018-04-02T06:22:43.641Z,105.37
2018-04-02T06:25:16.039Z,98.17
2018-04-02T06:27:48.499Z,100.97
2018-04-02T06:30:20.999Z,117.53
2018-04-02T06:32:53.480Z,108.33
2018-04-02T06:35:25.790Z,106.67
2018-04-02T06:37:58.387Z,94.00
2018-04-02T06:40:31.374Z,95.83
2018-04-02T06:43:04.722Z,97.80
2018-04-02T06:45:37.266Z,99.17
2018-04-02T06:48:10.674Z,83.97
2018-04-02T06:50:43.131Z,85.03
2018-04-02T06:53:16.425Z,83.03
2018-04-02T06:55:49.571Z,83.77
2018-04-02T06:58:21.896Z,79.73
2018-04-02T07:00:55.566Z,78.37
2018-04-02T07:03:28.113Z,74.07
2018-04-02T07:06:01.240Z,70.23
2018-04-02T07:08:33.806Z,71.30
2018-04-02T07:11:06.254Z,69.27
2018-04-02T07:13:38.904Z,66.10
2018-04-02T07:16:13.112Z,62.80
2018-04-02T07:18:45.660Z,69.80
2018-04-02T07:21:18.075Z,70.40
2018-04-02T07:23:50.592Z,64.00
2018-04-02T07:26:23.153Z,64.43
2018-04-02T07:28:55.521Z,73.27
2018-04-02T07:31:28.021Z,74.37
2018-04-02T07:34:00.534Z,74.20
2018-04-02T07:36:32.951Z,78.17
2018-04-02T07:39:05.607Z,58.17
2018-04-02T07:41:38.877Z,67.87
2018-04-02T07:44:11.406Z,62.93
2018-04-02T07:46:44.947Z,71.90
2018-04-02T07:49:18.965Z,68.20
2018-04-02T07:51:52.225Z,66.20
2018-04-02T07:54:24.666Z,73.50
2018-04-02T07:56:57.081Z,64.00
2018-04-02T07:59:30.479Z,67.37
2018-04-02T08:02:03.036Z,72.93
2018-04-02T08:04:35.715Z,65.83
2018-04-02T08:07:08.160Z,62.57
2018-04-02T08:09:40.577Z,65.60
2018-04-02T08:12:13.338Z,63.70
2018-04-02T08:14:45.840Z,66.70
2018-04-02T08:17:19.011Z,58.53
2018-04-02T08:19:51.661Z,64.63
2018-04-02T08:22:24.242Z,63.57
2018-04-02T08:24:57.045Z,59.17
2018-04-02T08:27:29.587Z,55.70
2018-04-02T08:30:03.153Z,60.87
2018-04-02T08:32:35.776Z,63.83
2018-04-02T08:35:08.415Z,51.90
2018-04-02T08:37:41.017Z,59.70
2018-04-02T08:40:13.708Z,57.60
2018-04-02T08:42:46.285Z,55.40
2018-04-02T08:45:18.835Z,50.83
2018-04-02T08:47:51.411Z,56.27
2018-04-02T08:50:25.360Z,52.93
2018-04-02T08:52:58.815Z,52.47
2018-04-02T08:55:31.316Z,50.30
2018-04-02T08:58:04.525Z,54.63
2018-04-02T09:00:37.122Z,53.03
2018-04-02T09:03:09.861Z,63.03
2018-04-02T09:05:42.356Z,57.70
2018-04-02T09:08:16.261Z,51.07
2018-04-02T09:10:48.694Z,46.83
2018-04-02T09:13:21.342Z,47.07
2018-04-02T09:15:54.625Z,43.23
2018-04-02T09:18:27.161Z,52.17
2018-04-02T09:20:59.780Z,44.33
2018-04-02T09:23:32.966Z,41.07
2018-04-02T09:26:05.320Z,45.07
2018-04-02T09:28:37.687Z,40.77
2018-04-02T09:31:10.376Z,40.57
2018-04-02T09:33:43.003Z,43.07
2018-04-02T09:36:15.952Z,44.60
2018-04-02T09:38:48.568Z,39.93
2018-04-02T09:41:21.175Z,39.70
2018-04-02T09:43:54.332Z,33.43
2018-04-02T09:46:27.434Z,30.97
2018-04-02T09:49:00.086Z,34.57
2018-04-02T09:51:32.610Z,37.33
2018-04-02T09:54:05.051Z,34.83
2018-04-02T09:56:38.341Z,32.13
2018-04-02T09:59:11.058Z,32.40
2018-04-02T10:01:43.755Z,29.60
2018-04-02T10:04:17.091Z,30.97
2018-04-02T10:06:50.507Z,28.73
2018-04-02T10:09:23.157Z,31.33
2018-04-02T10:11:55.804Z,28.87
2018-04-02T10:14:29.680Z,28.07
2018-04-02T10:17:02.104Z,26.63
2018-04-02T10:19:34.661Z,25.13
2018-04-02T10:22:07.956Z,27.93
2018-04-02T10:24:40.448Z,27.20
2018-04-02T10:27:13.612Z,27.10
2018-04-02T10:29:47.195Z,25.13
2018-04-02T10:32:19.698Z,25.23
2018-04-02T10:34:52.579Z,26.17
2018-04-02T10:37:25.032Z,26.73
2018-04-02T10:39:57.451Z,27.47
2018-04-02T10:42:24.084Z,27.13
2018-04-02T10:44:51.141Z,24.30
2018-04-02T10:47:17.597Z,24.97
2018-04-02T10:49:43.961Z,24.10
2018-04-02T10:52:11.057Z,24.37
2018-04-02T10:54:37.630Z,23.17
2018-04-02T10:57:04.642Z,26.70
2018-04-02T10:59:31.205Z,20.27
2018-04-02T11:01:57.897Z,20.80
2018-04-02T11:04:24.278Z,22.33
2018-04-02T11:06:50.662Z,21.73
2018-04-02T11:09:17.274Z,23.33
2018-04-02T11:11:43.973Z,22.73
2018-04-02T11:14:10.817Z,22.53
2018-04-02T11:16:38.456Z,20.90
2018-04-02T11:19:04.982Z,20.13
2018-04-02T11:21:31.722Z,21.33
2018-04-02T11:23:58.767Z,19.53
2018-04-02T11:26:25.204Z,22.43
2018-04-02T11:28:51.964Z,19.63
2018-04-02T11:31:18.436Z,19.07
2018-04-02T11:33:45.329Z,21.30
2018-04-02T11:36:13.010Z,19.77
2018-04-02T11:38:40.049Z,19.93
2018-04-02T11:41:06.766Z,22.83
2018-04-02T11:43:33.383Z,19.27
2018-04-02T11:45:59.837Z,19.63
2018-04-02T11:48:26.411Z,19.13
2018-04-02T11:50:53.006Z,21.67
2018-04-02T11:53:19.448Z,19.27
2018-04-02T11:55:46.022Z,18.10
2018-04-02T11:58:13.560Z,18.90
2018-04-02T12:00:40.936Z,18.57
2018-04-02T12:03:08.077Z,19.83
2018-04-02T12:05:35.723Z,20.20
2018-04-02T12:08:05.498Z,19.83
2018-04-02T12:10:32.096Z,17.37
2018-04-02T12:12:58.793Z,19.37
2018-04-02T12:15:25.374Z,17.67
2018-04-02T12:17:52.267Z,18.47
2018-04-02T12:20:18.681Z,15.33
2018-04-02T12:22:45.573Z,17.47
2018-04-02T12:25:13.103Z,17.23
2018-04-02T12:27:39.794Z,15.27
2018-04-02T12:30:06.951Z,15.67
2018-04-02T12:32:35.065Z,17.27
2018-04-02T12:35:02.162Z,15.63
2018-04-02T12:37:29.162Z,15.80
2018-04-02T12:39:56.237Z,13.67
2018-04-02T12:42:23.356Z,13.43
2018-04-02T12:44:50.202Z,18.13
2018-04-02T12:47:17.320Z,15.57
2018-04-02T12:49:44.239Z,17.07
2018-04-02T12:52:10.828Z,15.03
2018-04-02T12:54:38.804Z,17.03
2018-04-02T12:57:05.415Z,26.97
2018-04-02T12:59:31.906Z,15.60
2018-04-02T13:01:58.372Z,15.20
2018-04-02T13:04:25.481Z,14.60
2018-04-02T13:06:52.233Z,15.33
2018-04-02T13:09:19.472Z,14.47
2018-04-02T13:11:46.212Z,14.27
2018-04-02T13:14:12.797Z,15.60
2018-04-02T13:16:39.146Z,15.90
2018-04-02T13:19:05.899Z,14.93
2018-04-02T13:21:32.532Z,13.03
2018-04-02T13:23:59.273Z,15.10
2018-04-02T13:26:25.958Z,15.77
2018-04-02T13:28:52.592Z,15.47
2018-04-02T13:31:19.815Z,13.53
2018-04-02T13:33:47.971Z,13.90
2018-04-02T13:36:14.781Z,13.67
2018-04-02T13:38:42.378Z,13.93
2018-04-02T13:41:10.535Z,15.73
2018-04-02T13:43:37.095Z,13.13
2018-04-02T13:46:05.567Z,16.03
2018-04-02T13:48:32.983Z,17.27
2018-04-02T13:51:00.321Z,14.10
2018-04-02T13:53:27.126Z,15.27
2018-04-02T13:55:54.149Z,20.63
2018-04-02T13:58:21.649Z,14.37
2018-04-02T14:00:49.206Z,12.97
2018-04-02T14:03:16.499Z,20.60
2018-04-02T14:05:44.609Z,12.27
2018-04-02T14:08:11.828Z,13.87
2018-04-02T14:10:38.871Z,13.07
2018-04-02T14:13:06.251Z,12.60
2018-04-02T14:15:32.897Z,13.17
2018-04-02T14:17:59.662Z,13.33
2018-04-02T14:20:27.022Z,9.97
2018-04-02T14:22:54.552Z,12.67
2018-04-02T14:25:20.971Z,12.37
2018-04-02T14:27:47.627Z,12.70
2018-04-02T14:30:15.742Z,12.70
2018-04-02T14:32:43.258Z,14.00
2018-04-02T14:35:09.762Z,13.53
2018-04-02T14:37:36.816Z,14.53
2018-04-02T14:40:03.403Z,13.23
2018-04-02T14:42:31.238Z,14.27
2018-04-02T14:44:58.067Z,11.20
2018-04-02T14:47:24.737Z,10.83
2018-04-02T14:49:51.528Z,10.83
2018-04-02T14:52:17.913Z,12.57
2018-04-02T14:54:44.466Z,13.90
2018-04-02T14:57:11.707Z,12.80
2018-04-02T14:59:45.166Z,13.93
2018-04-02T15:02:17.947Z,10.87
2018-04-02T15:04:51.049Z,11.87
2018-04-02T15:07:23.935Z,13.83
2018-04-02T15:09:57.948Z,13.23
2018-04-02T15:12:30.451Z,12.93
2018-04-02T15:15:03.413Z,11.80
2018-04-02T15:17:36.293Z,12.13
2018-04-02T15:20:08.993Z,12.20
2018-04-02T15:22:42.573Z,11.57
2018-04-02T15:25:15.568Z,13.30
2018-04-02T15:27:48.357Z,11.80
2018-04-02T15:30:21.432Z,10.70
2018-04-02T15:32:54.210Z,10.73
2018-04-02T15:35:27.913Z,11.60
2018-04-02T15:38:00.621Z,12.00
2018-04-02T15:40:33.272Z,10.60
2018-04-02T15:43:06.055Z,11.50
2018-04-02T15:45:38.701Z,11.53
2018-04-02T15:48:12.454Z,10.23
2018-04-02T15:50:45.143Z,11.77
2018-04-02T15:53:18.924Z,11.17
2018-04-02T15:55:52.216Z,11.17
2018-04-02T15:58:25.163Z,10.67
2018-04-02T16:00:58.216Z,12.07
2018-04-02T16:03:31.897Z,10.67
2018-04-02T16:06:05.451Z,10.70
2018-04-02T16:08:39.027Z,10.63
2018-04-02T16:11:11.998Z,10.57
2018-04-02T16:13:44.966Z,10.27
2018-04-02T16:16:18.208Z,12.57
2018-04-02T16:18:51.632Z,10.43
2018-04-02T16:21:24.399Z,8.33
2018-04-02T16:23:57.223Z,12.47
2018-04-02T16:26:30.039Z,10.93
2018-04-02T16:29:03.581Z,13.27
2018-04-02T16:31:37.614Z,12.50
2018-04-02T16:34:10.149Z,10.33
2018-04-02T16:36:42.870Z,10.17
2018-04-02T16:39:15.504Z,12.07
2018-04-02T16:41:49.457Z,10.83
2018-04-02T16:44:22.989Z,9.60
2018-04-02T16:46:56.153Z,9.63
2018-04-02T16:49:28.932Z,10.00
2018-04-02T16:52:01.838Z,9.40
2018-04-02T16:54:36.183Z,10.03
2018-04-02T16:57:09.324Z,10.97
2018-04-02T16:59:43.232Z,11.17
2018-04-02T17:02:15.775Z,12.37
2018-04-02T17:04:49.149Z,12.67
2018-04-02T17:07:22.092Z,11.43
2018-04-02T17:09:55.793Z,10.03
2018-04-02T17:12:28.779Z,9.80
2018-04-02T17:15:01.868Z,10.00
2018-04-02T17:17:34.658Z,10.47
2018-04-02T17:20:07.466Z,11.47
2018-04-02T17:22:40.346Z,10.77
2018-04-02T17:25:13.749Z,9.43
2018-04-02T17:27:46.464Z,8.43
2018-04-02T17:30:19.307Z,11.07
2018-04-02T17:32:52.069Z,10.83
2018-04-02T17:35:25.149Z,11.23
2018-04-02T17:37:58.302Z,9.93
2018-04-02T17:40:32.108Z,11.07
2018-04-02T17:43:05.016Z,10.33
2018-04-02T17:45:37.610Z,8.63
2018-04-02T17:48:10.485Z,10.50
2018-04-02T17:50:43.862Z,9.93
2018-04-02T17:53:16.937Z,9.93
2018-04-02T17:55:50.276Z,10.70
2018-04-02T17:58:23.088Z,11.33
2018-04-02T18:00:56.137Z,10.40
2018-04-02T18:03:29.129Z,10.13
2018-04-02T18:06:01.814Z,9.67
2018-04-02T18:08:35.508Z,10.93
2018-04-02T18:11:08.704Z,8.53
2018-04-02T18:13:41.562Z,8.73
2018-04-02T18:16:14.655Z,9.63
2018-04-02T18:18:47.485Z,9.90
2018-04-02T18:21:21.027Z,10.20
2018-04-02T18:23:54.147Z,7.27
2018-04-02T18:26:28.062Z,9.27
2018-04-02T18:29:01.043Z,8.17
2018-04-02T18:31:33.921Z,9.00
2018-04-02T18:34:07.188Z,7.17
2018-04-02T18:36:40.144Z,7.77
2018-04-02T18:39:13.198Z,7.47
2018-04-02T18:41:46.389Z,7.10
2018-04-02T18:44:20.231Z,6.77
2018-04-02T18:46:47.901Z,7.70
2018-04-02T18:49:14.364Z,9.07
2018-04-02T18:51:41.563Z,8.43
2018-04-02T18:54:08.007Z,7.00
2018-04-02T18:56:35.045Z,7.87
2018-04-02T18:59:01.594Z,6.43
2018-04-02T19:01:28.008Z,8.47
2018-04-02T19:03:54.561Z,7.03
2018-04-02T19:06:20.994Z,6.30
2018-04-02T19:08:47.320Z,7.60
2018-04-02T19:11:13.663Z,7.30
2018-04-02T19:13:40.101Z,7.37
2018-04-02T19:16:06.618Z,7.77
2018-04-02T19:18:33.256Z,7.13
2018-04-02T19:20:59.570Z,7.13
2018-04-02T19:23:26.593Z,6.57
2018-04-02T19:25:53.678Z,5.47
2018-04-02T19:28:20.110Z,7.07
2018-04-02T19:30:47.502Z,5.47
2018-04-02T19:33:14.713Z,6.30
2018-04-02T19:35:41.116Z,5.97
2018-04-02T19:38:07.574Z,6.53
2018-04-02T19:40:33.923Z,7.03
2018-04-02T19:43:00.318Z,6.67
2018-04-02T19:45:26.735Z,5.80
2018-04-02T19:47:53.159Z,6.73
2018-04-02T19:50:20.810Z,4.53
2018-04-02T19:52:47.935Z,6.10
2018-04-02T19:55:16.484Z,6.80
2018-04-02T19:57:42.848Z,4.90
2018-04-02T20:00:09.277Z,6.03
2018-04-02T20:02:36.706Z,5.60
2018-04-02T20:05:03.343Z,7.67
2018-04-02T20:07:29.914Z,4.77
2018-04-02T20:09:56.397Z,6.30
2018-04-02T20:12:22.766Z,5.00
2018-04-02T20:14:49.146Z,5.27
2018-04-02T20:17:15.585Z,6.33
2018-04-02T20:19:48.990Z,6.20
2018-04-02T20:22:22.270Z,5.60
2018-04-02T20:24:54.677Z,6.03
2018-04-02T20:27:27.412Z,6.43
2018-04-02T20:29:59.983Z,5.77
2018-04-02T20:32:32.638Z,5.57
2018-04-02T20:35:05.166Z,5.57
2018-04-02T20:37:37.677Z,5.50
2018-04-02T20:40:10.339Z,5.50
2018-04-02T20:42:42.825Z,4.93
2018-04-02T20:45:15.616Z,5.77
2018-04-02T20:47:48.140Z,6.47
2018-04-02T20:50:21.386Z,5.70
2018-04-02T20:52:54.004Z,6.40
2018-04-02T20:55:26.843Z,5.93
2018-04-02T20:57:59.308Z,6.30
2018-04-02T21:00:32.098Z,8.87
2018-04-02T21:03:04.766Z,9.47
2018-04-02T21:05:39.122Z,9.23
2018-04-02T21:08:11.874Z,6.17
2018-04-02T21:10:44.457Z,8.40
2018-04-02T21:13:17.129Z,8.43
2018-04-02T21:15:50.500Z,8.27
2018-04-02T21:18:23.309Z,7.77
2018-04-02T21:20:55.574Z,8.57
2018-04-02T21:23:28.154Z,8.93
2018-04-02T21:26:01.514Z,5.90
2018-04-02T21:28:33.900Z,7.93
2018-04-02T21:31:06.640Z,7.13
2018-04-02T21:33:39.930Z,7.93
2018-04-02T21:36:14.140Z,9.60
2018-04-02T21:38:46.681Z,6.87
2018-04-02T21:41:19.356Z,7.60
2018-04-02T21:43:51.705Z,7.30
2018-04-02T21:46:24.085Z,8.07
2018-04-02T21:48:56.609Z,8.83
2018-04-02T21:51:29.043Z,8.97
2018-04-02T21:54:01.657Z,7.93
2018-04-02T21:56:35.233Z,8.43
2018-04-02T21:59:07.635Z,8.33
2018-04-02T22:01:40.283Z,6.03
2018-04-02T22:04:12.679Z,8.07
2018-04-02T22:07:11.270Z,6.00
2018-04-02T22:09:43.874Z,6.50
2018-04-02T22:12:16.494Z,6.43
2018-04-02T22:14:49.124Z,14.70
2018-04-02T22:17:21.729Z,7.33
2018-04-02T22:19:54.896Z,8.20
2018-04-02T22:22:27.268Z,5.07
2018-04-02T22:25:00.425Z,5.33
2018-04-02T22:27:33.772Z,5.60
2018-04-02T22:30:06.370Z,7.03
2018-04-02T22:32:39.973Z,7.30
2018-04-02T22:35:12.572Z,5.13
2018-04-02T22:37:45.040Z,7.43
2018-04-02T22:40:17.598Z,8.83
2018-04-02T22:42:51.693Z,5.57
2018-04-02T22:45:24.901Z,5.10
2018-04-02T22:47:57.345Z,7.37
2018-04-02T22:50:30.009Z,5.10
2018-04-02T22:53:03.140Z,7.23
2018-04-02T22:55:35.724Z,8.50
2018-04-02T22:58:09.679Z,7.57
2018-04-02T23:00:42.208Z,6.20
2018-04-02T23:03:15.247Z,6.10
2018-04-02T23:05:47.679Z,6.43
2018-04-02T23:08:20.383Z,5.70
2018-04-02T23:10:53.098Z,7.67
2018-04-02T23:13:26.313Z,6.23
2018-04-02T23:15:58.834Z,4.60
2018-04-02T23:18:31.419Z,5.27
2018-04-02T23:21:03.959Z,6.70
2018-04-02T23:23:36.413Z,6.07
2018-04-02T23:26:08.930Z,5.33
2018-04-02T23:28:41.593Z,5.20
2018-04-02T23:31:14.293Z,5.60
2018-04-02T23:33:46.830Z,3.50
2018-04-02T23:36:19.441Z,3.73
2018-04-02T23:38:51.884Z,4.07
2018-04-02T23:41:24.377Z,3.00
2018-04-02T23:43:58.000Z,2.93
2018-04-02T23:46:30.583Z,3.10
2018-04-02T23:49:04.165Z,3.07
2018-04-02T23:51:37.445Z,3.27
2018-04-02T23:54:09.920Z,3.63
2018-04-02T23:56:42.454Z,3.43
2018-04-02T23:59:15.780Z,4.87
